Time,TemperatureF,DewpointF,PressureIn,WindDirection,WindDirectionDegrees,WindSpeedMPH,WindSpeedGustMPH,Humidity,HourlyPrecipIn,Conditions,Clouds,dailyrainin,SoftwareType,DateUTC
2013-07-03 00:00:00,71.0,-99.9,-100.00,SW,226,11.0,12.0,-999,-99.99,,,-99.99,,2013-07-03 06:00:00,
2013-07-03 00:27:00,71.0,-99.9,-100.00,SW,226,11.0,12.0,-999,-99.99,,,-99.99,,2013-07-03 06:27:00,
2013-07-03 00:51:00,71.0,-99.9,-100.00,SW,226,11.0,12.0,-999,-99.99,,,-99.99,,2013-07-03 06:51:00,
2013-07-03 01:00:00,70.0,-99.9,-100.00,SW,217,9.0,10.0,-999,-99.99,,,-99.99,,2013-07-03 07:00:00,
2013-07-03 01:29:00,70.0,-99.9,-100.00,SW,217,9.0,10.0,-999,-99.99,,,-99.99,,2013-07-03 07:29:00,
2013-07-03 01:41:00,70.0,-99.9,-100.00,SW,217,9.0,10.0,-999,-99.99,,,-99.99,,2013-07-03 07:41:00,
2013-07-03 01:49:00,70.0,-99.9,-100.00,SW,217,9.0,10.0,-999,-99.99,,,-99.99,,2013-07-03 07:49:00,
2013-07-03 02:00:00,70.0,-99.9,-100.00,SW,234,5.0,7.0,-999,-99.99,,,-99.99,,2013-07-03 08:00:00,
2013-07-03 02:48:00,70.0,-99.9,-100.00,SW,234,5.0,7.0,-999,-99.99,,,-99.99,,2013-07-03 08:48:00,
2013-07-03 03:00:00,70.0,-99.9,-100.00,SSW,206,6.0,8.0,-999,-99.99,,,-99.99,,2013-07-03 09:00:00,
2013-07-03 03:27:00,70.0,-99.9,-100.00,SSW,206,6.0,8.0,-999,-99.99,,,-99.99,,2013-07-03 09:27:00,
2013-07-03 03:41:00,70.0,-99.9,-100.00,SSW,206,6.0,8.0,-999,-99.99,,,-99.99,,2013-07-03 09:41:00,
2013-07-03 03:48:00,70.0,-99.9,-100.00,SSW,206,6.0,8.0,-999,-99.99,,,-99.99,,2013-07-03 09:48:00,
2013-07-03 04:00:00,71.0,-99.9,-100.00,SSE,149,6.0,7.0,-999,-99.99,,,-99.99,,2013-07-03 10:00:00,
2013-07-03 04:29:00,71.0,-99.9,-100.00,SSE,149,6.0,7.0,-999,-99.99,,,-99.99,,2013-07-03 10:29:00,
2013-07-03 04:38:00,71.0,-99.9,-100.00,SSE,149,6.0,7.0,-999,-99.99,,,-99.99,,2013-07-03 10:38:00,
2013-07-03 04:48:00,71.0,-99.9,-100.00,SSE,149,6.0,7.0,-999,-99.99,,,-99.99,,2013-07-03 10:48:00,
2013-07-03 04:58:00,71.0,-99.9,-100.00,SSE,149,6.0,7.0,-999,-99.99,,,-99.99,,2013-07-03 10:58:00,
2013-07-03 05:00:00,72.0,-99.9,-100.00,ENE,67,0.0,2.0,-999,-99.99,,,-99.99,,2013-07-03 11:00:00,
2013-07-03 05:40:00,72.0,-99.9,-100.00,ENE,67,0.0,2.0,-999,-99.99,,,-99.99,,2013-07-03 11:40:00,
2013-07-03 05:46:00,72.0,-99.9,-100.00,ENE,67,0.0,2.0,-999,-99.99,,,-99.99,,2013-07-03 11:46:00,
2013-07-03 06:00:00,70.0,-99.9,-100.00,ESE,110,4.0,4.0,-999,-99.99,,,-99.99,,2013-07-03 12:00:00,
2013-07-03 06:27:00,70.0,-99.9,-100.00,ESE,110,4.0,4.0,-999,-99.99,,,-99.99,,2013-07-03 12:27:00,
2013-07-03 06:38:00,70.0,-99.9,-100.00,ESE,110,4.0,4.0,-999,-99.99,,,-99.99,,2013-07-03 12:38:00,
2013-07-03 06:48:00,70.0,-99.9,-100.00,ESE,110,4.0,4.0,-999,-99.99,,,-99.99,,2013-07-03 12:48:00,
2013-07-03 07:00:00,73.0,-99.9,-100.00,NW,320,4.0,5.0,-999,-99.99,,,-99.99,,2013-07-03 13:00:00,
2013-07-03 07:49:00,73.0,-99.9,-100.00,NW,320,4.0,5.0,-999,-99.99,,,-99.99,,2013-07-03 13:49:00,
2013-07-03 08:00:00,76.0,-99.9,-100.00,ENE,60,4.0,5.0,-999,-99.99,,,-99.99,,2013-07-03 14:00:00,
2013-07-03 08:49:00,76.0,-99.9,-100.00,ENE,60,4.0,5.0,-999,-99.99,,,-99.99,,2013-07-03 14:49:00,
2013-07-03 08:56:00,76.0,-99.9,-100.00,ENE,60,4.0,5.0,-999,-99.99,,,-99.99,,2013-07-03 14:56:00,
2013-07-03 09:00:00,84.0,-99.9,-100.00,NNE,26,3.0,4.0,-999,-99.99,,,-99.99,,2013-07-03 15:00:00,
2013-07-03 09:50:00,84.0,-99.9,-100.00,NNE,26,3.0,4.0,-999,-99.99,,,-99.99,,2013-07-03 15:50:00,
2013-07-03 11:00:00,90.0,-99.9,-100.00,ENE,59,14.0,19.0,-999,-99.99,,,-99.99,,2013-07-03 17:00:00,
2013-07-03 11:27:00,90.0,-99.9,-100.00,ENE,59,14.0,19.0,-999,-99.99,,,-99.99,,2013-07-03 17:27:00,
2013-07-03 11:43:00,90.0,-99.9,-100.00,ENE,59,14.0,19.0,-999,-99.99,,,-99.99,,2013-07-03 17:43:00,
2013-07-03 11:50:00,90.0,-99.9,-100.00,ENE,59,14.0,19.0,-999,-99.99,,,-99.99,,2013-07-03 17:50:00,
2013-07-03 11:57:00,90.0,-99.9,-100.00,ENE,59,14.0,19.0,-999,-99.99,,,-99.99,,2013-07-03 17:57:00,
2013-07-03 12:00:00,93.0,-99.9,-100.00,NNE,16,19.0,23.0,-999,-99.99,,,-99.99,,2013-07-03 18:00:00,
2013-07-03 12:39:00,93.0,-99.9,-100.00,NNE,16,19.0,23.0,-999,-99.99,,,-99.99,,2013-07-03 18:39:00,
2013-07-03 12:48:00,93.0,-99.9,-100.00,NNE,16,19.0,23.0,-999,-99.99,,,-99.99,,2013-07-03 18:48:00,
2013-07-03 13:00:00,94.0,-99.9,-100.00,NNE,25,17.0,23.0,-999,-99.99,,,-99.99,,2013-07-03 19:00:00,
2013-07-03 13:30:00,94.0,-99.9,-100.00,NNE,25,17.0,23.0,-999,-99.99,,,-99.99,,2013-07-03 19:30:00,
2013-07-03 13:39:00,94.0,-99.9,-100.00,NNE,25,17.0,23.0,-999,-99.99,,,-99.99,,2013-07-03 19:39:00,
2013-07-03 13:49:00,94.0,-99.9,-100.00,NNE,25,17.0,23.0,-999,-99.99,,,-99.99,,2013-07-03 19:49:00,
2013-07-03 13:58:00,94.0,-99.9,-100.00,NNE,25,17.0,23.0,-999,-99.99,,,-99.99,,2013-07-03 19:58:00,
2013-07-03 14:00:00,94.0,-99.9,-100.00,NE,35,23.0,28.0,-999,-99.99,,,-99.99,,2013-07-03 20:00:00,
2013-07-03 14:39:00,94.0,-99.9,-100.00,NE,35,23.0,28.0,-999,-99.99,,,-99.99,,2013-07-03 20:39:00,
2013-07-03 14:59:00,94.0,-99.9,-100.00,NE,35,23.0,28.0,-999,-99.99,,,-99.99,,2013-07-03 20:59:00,
2013-07-03 15:00:00,94.0,-99.9,-100.00,NE,34,25.0,33.0,-999,-99.99,,,-99.99,,2013-07-03 21:00:00,
2013-07-03 15:46:00,94.0,-99.9,-100.00,NE,34,25.0,33.0,-999,-99.99,,,-99.99,,2013-07-03 21:46:00,
2013-07-03 15:56:00,94.0,-99.9,-100.00,NE,34,25.0,33.0,-999,-99.99,,,-99.99,,2013-07-03 21:56:00,
2013-07-03 17:00:00,92.0,-99.9,-100.00,NE,36,27.0,34.0,-999,-99.99,,,-99.99,,2013-07-03 23:00:00,
2013-07-03 17:40:00,92.0,-99.9,-100.00,NE,36,27.0,34.0,-999,-99.99,,,-99.99,,2013-07-03 23:40:00,
2013-07-03 17:46:00,92.0,-99.9,-100.00,NE,36,27.0,34.0,-999,-99.99,,,-99.99,,2013-07-03 23:46:00,
2013-07-03 17:57:00,92.0,-99.9,-100.00,NE,36,27.0,34.0,-999,-99.99,,,-99.99,,2013-07-03 23:57:00,
2013-07-03 18:51:00,92.0,-99.9,-100.00,NE,36,27.0,36.0,-999,-99.99,,,-99.99,,2013-07-04 00:51:00,
2013-07-03 18:58:00,92.0,-99.9,-100.00,NE,36,27.0,36.0,-999,-99.99,,,-99.99,,2013-07-04 00:58:00,
2013-07-03 19:00:00,90.0,-99.9,-100.00,NNE,25,18.0,24.0,-999,-99.99,,,-99.99,,2013-07-04 01:00:00,
2013-07-03 19:25:00,90.0,-99.9,-100.00,NNE,25,18.0,24.0,-999,-99.99,,,-99.99,,2013-07-04 01:25:00,
2013-07-03 19:49:00,90.0,-99.9,-100.00,NNE,25,18.0,24.0,-999,-99.99,,,-99.99,,2013-07-04 01:49:00,
2013-07-03 19:59:00,90.0,-99.9,-100.00,NNE,25,18.0,24.0,-999,-99.99,,,-99.99,,2013-07-04 01:59:00,
2013-07-03 20:00:00,88.0,-99.9,-100.00,NNE,32,13.0,16.0,-999,-99.99,,,-99.99,,2013-07-04 02:00:00,
2013-07-03 20:24:00,88.0,-99.9,-100.00,NNE,32,13.0,16.0,-999,-99.99,,,-99.99,,2013-07-04 02:24:00,
2013-07-03 20:42:00,88.0,-99.9,-100.00,NNE,32,13.0,16.0,-999,-99.99,,,-99.99,,2013-07-04 02:42:00,
2013-07-03 20:49:00,88.0,-99.9,-100.00,NNE,32,13.0,16.0,-999,-99.99,,,-99.99,,2013-07-04 02:49:00,
2013-07-03 20:58:00,88.0,-99.9,-100.00,NNE,32,13.0,16.0,-999,-99.99,,,-99.99,,2013-07-04 02:58:00,
2013-07-03 21:00:00,83.0,-99.9,-100.00,ENE,58,6.0,7.0,-999,-99.99,,,-99.99,,2013-07-04 03:00:00,
2013-07-03 21:36:00,83.0,-99.9,-100.00,ENE,58,6.0,7.0,-999,-99.99,,,-99.99,,2013-07-04 03:36:00,
2013-07-03 21:47:00,83.0,-99.9,-100.00,ENE,58,6.0,7.0,-999,-99.99,,,-99.99,,2013-07-04 03:47:00,
2013-07-03 21:59:00,83.0,-99.9,-100.00,ENE,58,6.0,7.0,-999,-99.99,,,-99.99,,2013-07-04 03:59:00,
2013-07-03 22:00:00,77.0,-99.9,-100.00,WSW,244,6.0,7.0,-999,-99.99,,,-99.99,,2013-07-04 04:00:00,
2013-07-03 22:33:00,77.0,-99.9,-100.00,WSW,244,6.0,7.0,-999,-99.99,,,-99.99,,2013-07-04 04:33:00,
2013-07-03 22:43:00,77.0,-99.9,-100.00,WSW,244,6.0,7.0,-999,-99.99,,,-99.99,,2013-07-04 04:43:00,
2013-07-03 22:52:00,77.0,-99.9,-100.00,WSW,244,6.0,7.0,-999,-99.99,,,-99.99,,2013-07-04 04:52:00,
2013-07-03 23:00:00,74.0,-99.9,-100.00,SW,228,10.0,12.0,-999,-99.99,,,-99.99,,2013-07-04 05:00:00,
2013-07-03 23:22:00,74.0,-99.9,-100.00,SW,228,10.0,12.0,-999,-99.99,,,-99.99,,2013-07-04 05:22:00,
2013-07-03 23:33:00,74.0,-99.9,-100.00,SW,228,10.0,12.0,-999,-99.99,,,-99.99,,2013-07-04 05:33:00,
2013-07-03 23:43:00,74.0,-99.9,-100.00,SW,228,10.0,12.0,-999,-99.99,,,-99.99,,2013-07-04 05:43:00,
2013-07-03 23:52:00,74.0,-99.9,-100.00,SW,228,10.0,12.0,-999,-99.99,,,-99.99,,2013-07-04 05:52:00,